Live aus Altenrhein
LIVE
LSZR 191320Z 36011KT 9000 -RA FEW010 SCT022 BKN028 10/08 Q1018 NOSIG RMK J
Zeitraffer heute
2017-09-19 00:14:56
LSZR 182150Z AUTO 10002KT 9999 NCD 09/07 Q1018
Zeitraffer gestern
2017-09-18 00:14:59
LSZR 172150Z AUTO 09004KT 9999 -RA SCT039 OVC050 09/08 Q1017
Zeitraffer vor 3 Tagen
2017-09-16 00:00:00
LSZR 152150Z AUTO 12003KT 090V160 9999 OVC070 11/08 Q1013